createdAt,value
2019-01-25T00:01:52.869Z,101036.51
2019-01-25T00:04:22.849Z,101035.92
2019-01-25T00:06:52.815Z,101038.23
2019-01-25T00:09:22.771Z,101044.89
2019-01-25T00:11:52.822Z,101046.63
2019-01-25T00:14:23.315Z,101051.75
2019-01-25T00:16:56.388Z,101044.26
2019-01-25T00:19:26.652Z,101047.20
2019-01-25T00:21:57.486Z,101052.08
2019-01-25T00:24:27.704Z,101052.73
2019-01-25T00:26:57.785Z,101053.80
2019-01-25T00:29:28.007Z,101047.60
2019-01-25T00:31:58.051Z,101049.53
2019-01-25T00:34:28.441Z,101053.81
2019-01-25T00:36:58.571Z,101052.28
2019-01-25T00:39:28.519Z,101057.23
2019-01-25T00:41:59.353Z,101053.38
2019-01-25T00:44:30.601Z,101053.27
2019-01-25T00:47:01.285Z,101055.62
2019-01-25T00:49:31.429Z,101051.96
2019-01-25T00:52:03.628Z,101049.61
2019-01-25T00:54:33.852Z,101051.02
2019-01-25T00:57:04.004Z,101051.81
2019-01-25T00:59:36.610Z,101048.98
2019-01-25T01:02:06.630Z,101050.84
2019-01-25T01:04:36.875Z,101051.55
2019-01-25T01:07:06.883Z,101047.48
2019-01-25T01:09:36.966Z,101050.28
2019-01-25T01:12:06.934Z,101051.28
2019-01-25T01:14:39.795Z,101056.88
2019-01-25T01:17:09.894Z,101055.53
2019-01-25T01:19:39.836Z,101051.87
2019-01-25T01:22:09.875Z,101045.88
2019-01-25T01:24:39.844Z,101050.63
2019-01-25T01:27:09.808Z,101050.84
2019-01-25T01:29:39.750Z,101046.57
2019-01-25T01:32:09.716Z,101045.88
2019-01-25T01:34:39.681Z,101047.56
2019-01-25T01:37:09.619Z,101049.20
2019-01-25T01:39:41.660Z,101049.06
2019-01-25T01:42:11.541Z,101044.33
2019-01-25T01:44:42.782Z,101042.41
2019-01-25T01:47:12.759Z,101039.69
2019-01-25T01:49:42.852Z,101041.60
2019-01-25T01:52:12.801Z,101044.94
2019-01-25T01:54:42.956Z,101039.80
2019-01-25T01:57:13.386Z,101046.93
2019-01-25T01:59:43.408Z,101047.70
2019-01-25T02:02:13.710Z,101055.28
2019-01-25T02:04:43.934Z,101048.41
2019-01-25T02:07:14.064Z,101045.15
2019-01-25T02:09:43.992Z,101043.59
2019-01-25T02:12:16.664Z,101045.66
2019-01-25T02:14:49.779Z,101044.44
2019-01-25T02:17:19.916Z,101042.98
2019-01-25T02:19:51.306Z,101051.02
2019-01-25T02:22:21.624Z,101054.52
2019-01-25T02:24:51.540Z,101055.03
2019-01-25T02:27:21.649Z,101051.75
2019-01-25T02:29:53.095Z,101055.73
2019-01-25T02:32:23.063Z,101052.45
2019-01-25T02:34:53.110Z,101051.45
2019-01-25T02:37:22.928Z,101054.30
2019-01-25T02:39:52.885Z,101055.88
2019-01-25T02:42:22.878Z,101053.11
2019-01-25T02:44:53.220Z,101054.27
2019-01-25T02:47:23.208Z,101057.02
2019-01-25T02:49:53.499Z,101057.58
2019-01-25T02:52:23.340Z,101058.69
2019-01-25T02:54:53.739Z,101060.56
2019-01-25T02:57:25.371Z,101060.87
2019-01-25T02:59:55.311Z,101067.58
2019-01-25T03:02:25.218Z,101060.53
2019-01-25T03:04:55.286Z,101061.30
2019-01-25T03:07:25.282Z,101069.47
2019-01-25T03:09:56.009Z,101071.11
2019-01-25T03:12:25.950Z,101065.56
2019-01-25T03:15:01.565Z,101076.57
2019-01-25T03:17:31.651Z,101074.52
2019-01-25T03:20:02.071Z,101066.02
2019-01-25T03:22:32.082Z,101077.06
2019-01-25T03:25:02.060Z,101068.75
2019-01-25T03:27:32.035Z,101074.78
2019-01-25T03:30:01.991Z,101073.41
2019-01-25T03:32:32.021Z,101073.66
2019-01-25T03:35:01.883Z,101066.95
2019-01-25T03:37:31.903Z,101064.00
2019-01-25T03:40:01.793Z,101060.53
2019-01-25T03:42:31.831Z,101069.98
2019-01-25T03:45:02.643Z,101067.37
2019-01-25T03:47:35.594Z,101070.14
2019-01-25T03:50:07.179Z,101071.75
2019-01-25T03:52:37.119Z,101073.05
2019-01-25T03:55:08.627Z,101073.06
2019-01-25T03:57:38.541Z,101069.72
2019-01-25T04:00:24.198Z,101072.20
2019-01-25T04:02:57.711Z,101071.06
2019-01-25T04:05:28.881Z,101072.36
2019-01-25T04:07:58.821Z,101079.65
2019-01-25T04:10:29.253Z,101076.78
2019-01-25T04:13:00.883Z,101075.84
2019-01-25T04:15:32.870Z,101073.45
2019-01-25T04:18:02.811Z,101078.70
2019-01-25T04:20:32.838Z,101077.05
2019-01-25T04:23:07.863Z,101085.52
2019-01-25T04:25:40.825Z,101081.81
2019-01-25T04:28:10.767Z,101081.61
2019-01-25T04:30:40.815Z,101074.06
2019-01-25T04:33:10.773Z,101076.31
2019-01-25T04:35:40.833Z,101081.08
2019-01-25T04:38:13.401Z,101076.70
2019-01-25T04:40:47.036Z,101073.06
2019-01-25T04:43:18.410Z,101076.80
2019-01-25T04:45:49.804Z,101075.88
2019-01-25T04:48:19.981Z,101077.58
2019-01-25T04:50:50.034Z,101077.26
2019-01-25T04:53:19.984Z,101073.89
2019-01-25T04:55:50.062Z,101083.59
2019-01-25T04:58:20.391Z,101085.98
2019-01-25T05:00:52.714Z,101088.20
2019-01-25T05:03:22.761Z,101087.02
2019-01-25T05:05:55.352Z,101088.11
2019-01-25T05:08:25.357Z,101089.66
2019-01-25T05:10:55.485Z,101088.11
2019-01-25T05:13:25.519Z,101086.47
2019-01-25T05:15:55.577Z,101086.33
2019-01-25T05:18:25.633Z,101089.44
2019-01-25T05:20:55.898Z,101092.39
2019-01-25T05:23:28.915Z,101096.81
2019-01-25T05:26:01.600Z,101105.66
2019-01-25T05:28:31.663Z,101100.92
2019-01-25T05:31:09.950Z,101109.95
2019-01-25T05:33:40.170Z,101110.91
2019-01-25T05:36:10.116Z,101119.16
2019-01-25T05:38:45.967Z,101111.09
2019-01-25T05:41:15.931Z,101112.00
2019-01-25T05:43:48.587Z,101116.78
2019-01-25T05:46:18.766Z,101122.63
2019-01-25T05:48:49.234Z,101123.23
2019-01-25T05:51:19.279Z,101124.42
2019-01-25T05:53:53.437Z,101125.25
2019-01-25T05:56:23.950Z,101120.53
2019-01-25T05:58:56.878Z,101120.28
2019-01-25T06:01:26.884Z,101123.38
2019-01-25T06:03:56.909Z,101124.22
2019-01-25T06:06:26.871Z,101124.36
2019-01-25T06:08:56.786Z,101127.17
2019-01-25T06:11:27.602Z,101124.16
2019-01-25T06:13:58.015Z,101126.50
2019-01-25T06:16:29.752Z,101125.83
2019-01-25T06:18:59.872Z,101121.66
2019-01-25T06:21:29.735Z,101123.03
2019-01-25T06:23:59.751Z,101126.23
2019-01-25T06:26:29.853Z,101123.20
2019-01-25T06:28:59.761Z,101124.98
2019-01-25T06:31:29.796Z,101123.36
2019-01-25T06:33:59.852Z,101129.30
2019-01-25T06:36:29.816Z,101127.69
2019-01-25T06:38:59.915Z,101129.94
2019-01-25T06:41:30.038Z,101129.65
2019-01-25T06:44:00.002Z,101135.08
2019-01-25T06:46:30.023Z,101148.13
2019-01-25T06:49:00.013Z,101149.42
2019-01-25T06:51:30.028Z,101149.75
2019-01-25T06:53:59.910Z,101143.05
2019-01-25T06:56:29.898Z,101135.54
2019-01-25T06:59:11.919Z,101136.22
2019-01-25T07:02:07.401Z,101130.72
2019-01-25T07:04:37.304Z,101137.05
2019-01-25T07:07:11.348Z,101135.66
2019-01-25T07:09:41.550Z,101140.60
2019-01-25T07:12:11.883Z,101138.83
2019-01-25T07:14:41.908Z,101136.17
2019-01-25T07:17:12.226Z,101131.11
2019-01-25T07:19:44.749Z,101138.11
2019-01-25T07:22:14.767Z,101133.94
2019-01-25T07:24:46.829Z,101133.59
2019-01-25T07:27:16.958Z,101131.41
2019-01-25T07:29:49.325Z,101127.92
2019-01-25T07:32:20.404Z,101125.25
2019-01-25T07:34:50.528Z,101127.38
2019-01-25T07:37:20.587Z,101131.30
2019-01-25T07:39:50.656Z,101129.78
2019-01-25T07:42:20.951Z,101132.95
2019-01-25T07:44:51.391Z,101125.73
2019-01-25T07:47:21.737Z,101132.34
2019-01-25T07:49:51.977Z,101129.90
2019-01-25T07:52:21.937Z,101137.67
2019-01-25T07:54:51.976Z,101140.27
2019-01-25T07:57:22.246Z,101140.32
2019-01-25T07:59:53.640Z,101147.20
2019-01-25T08:02:23.722Z,101144.55
2019-01-25T08:04:53.729Z,101139.25
2019-01-25T08:07:23.775Z,101144.75
2019-01-25T08:09:56.331Z,101151.00
2019-01-25T08:12:26.366Z,101162.08
2019-01-25T08:14:56.401Z,101166.41
2019-01-25T08:17:26.477Z,101168.72
2019-01-25T08:19:56.749Z,101164.24
2019-01-25T08:22:26.960Z,101164.82
2019-01-25T08:24:57.023Z,101162.13
2019-01-25T08:27:27.012Z,101162.94
2019-01-25T08:29:57.125Z,101157.31
2019-01-25T08:32:27.185Z,101145.95
2019-01-25T08:34:57.256Z,101147.73
2019-01-25T08:37:27.373Z,101144.09
2019-01-25T08:39:59.947Z,101143.20
2019-01-25T08:42:30.232Z,101159.28
2019-01-25T08:45:00.671Z,101163.05
2019-01-25T08:47:31.535Z,101159.89
2019-01-25T08:50:01.972Z,101156.06
2019-01-25T08:52:33.571Z,101151.69
2019-01-25T08:55:03.794Z,101150.30
2019-01-25T08:57:33.965Z,101146.39
2019-01-25T09:00:08.767Z,101142.36
2019-01-25T09:02:39.995Z,101139.97
2019-01-25T09:05:10.850Z,101133.87
2019-01-25T09:07:41.336Z,101133.81
2019-01-25T09:10:13.763Z,101127.74
2019-01-25T09:12:46.595Z,101123.27
2019-01-25T09:15:19.261Z,101133.69
2019-01-25T09:17:51.021Z,101143.01
2019-01-25T09:20:21.555Z,101148.00
2019-01-25T09:23:04.218Z,101156.29
2019-01-25T09:25:35.403Z,101155.37
2019-01-25T09:28:05.761Z,101148.73
2019-01-25T09:30:35.884Z,101154.55
2019-01-25T09:33:08.191Z,101164.09
2019-01-25T09:35:38.325Z,101159.54
2019-01-25T09:38:10.885Z,101158.36
2019-01-25T09:40:41.055Z,101159.66
2019-01-25T09:43:13.376Z,101162.47
2019-01-25T09:48:39.070Z,101161.14
2019-01-25T09:51:12.335Z,101158.92
2019-01-25T09:53:48.181Z,101158.05
2019-01-25T09:56:19.797Z,101144.65
2019-01-25T09:58:50.423Z,101148.91
2019-01-25T10:01:20.994Z,101155.47
2019-01-25T10:03:51.029Z,101151.45
2019-01-25T10:06:20.989Z,101146.42
2019-01-25T10:08:50.916Z,101146.66
2019-01-25T10:11:22.502Z,101142.00
2019-01-25T10:13:52.663Z,101137.94
2019-01-25T10:16:23.781Z,101138.70
2019-01-25T10:18:54.338Z,101130.88
2019-01-25T10:21:24.309Z,101132.33
2019-01-25T10:23:54.713Z,101129.16
2019-01-25T10:26:44.085Z,101129.44
2019-01-25T10:29:15.318Z,101130.02
2019-01-25T10:31:45.532Z,101126.20
2019-01-25T10:34:16.219Z,101125.18
2019-01-25T10:36:46.644Z,101122.50
2019-01-25T10:39:16.955Z,101124.42
2019-01-25T10:44:44.386Z,101110.15
2019-01-25T10:47:14.630Z,101106.56
2019-01-25T10:49:44.646Z,101098.20
2019-01-25T10:52:15.520Z,101091.28
2019-01-25T10:54:45.652Z,101104.53
2019-01-25T10:57:16.667Z,101108.95
2019-01-25T10:59:46.628Z,101103.41
2019-01-25T11:02:16.772Z,101093.20
2019-01-25T11:04:50.916Z,101105.00
2019-01-25T11:07:20.992Z,101103.92
2019-01-25T11:10:00.892Z,101099.61
2019-01-25T11:12:31.176Z,101108.66
2019-01-25T11:15:01.500Z,101112.41
2019-01-25T11:17:36.410Z,101102.81
2019-01-25T11:20:03.246Z,101100.80
2019-01-25T11:25:35.348Z,101096.86
2019-01-25T11:28:06.429Z,101096.97
2019-01-25T11:30:37.492Z,101090.93
2019-01-25T11:33:07.465Z,101084.11
2019-01-25T11:35:38.863Z,101078.77
2019-01-25T11:38:08.834Z,101075.02
2019-01-25T11:40:41.098Z,101075.03
2019-01-25T11:43:11.068Z,101072.31
2019-01-25T11:45:41.521Z,101072.02
2019-01-25T11:48:15.582Z,101068.82
2019-01-25T11:50:45.729Z,101064.02
2019-01-25T11:53:15.769Z,101058.80
2019-01-25T11:55:45.716Z,101055.89
2019-01-25T11:58:15.679Z,101044.47
2019-01-25T12:00:46.593Z,101053.58
2019-01-25T12:03:16.561Z,101046.59
2019-01-25T12:05:46.503Z,101050.63
2019-01-25T12:08:16.538Z,101044.18
2019-01-25T12:10:46.533Z,101040.70
2019-01-25T12:13:16.960Z,101030.53
2019-01-25T12:15:46.910Z,101028.69
2019-01-25T12:18:16.826Z,101023.08
2019-01-25T12:20:46.802Z,101024.42
2019-01-25T12:23:16.759Z,101022.00
2019-01-25T12:25:46.708Z,101021.09
2019-01-25T12:28:16.736Z,101022.80
2019-01-25T12:30:46.772Z,101028.39
2019-01-25T12:33:16.704Z,101034.14
2019-01-25T12:35:46.765Z,101032.41
2019-01-25T12:38:16.797Z,101032.20
2019-01-25T12:40:46.802Z,101029.20
2019-01-25T12:43:23.696Z,101031.98
2019-01-25T12:45:50.338Z,101033.72
2019-01-25T12:48:20.575Z,101035.19
2019-01-25T12:51:01.476Z,101037.13
2019-01-25T12:53:32.305Z,101029.23
2019-01-25T12:56:04.057Z,101031.79
2019-01-25T12:58:35.831Z,101024.66
2019-01-25T13:01:06.791Z,101021.44
2019-01-25T13:03:36.797Z,101020.37
2019-01-25T13:06:07.013Z,101019.39
2019-01-25T13:08:37.049Z,101013.37
2019-01-25T13:11:10.011Z,101001.83
2019-01-25T13:13:40.053Z,101001.11
2019-01-25T13:16:11.054Z,101006.76
2019-01-25T13:18:41.253Z,101004.30
2019-01-25T13:21:11.470Z,100995.54
2019-01-25T13:23:42.003Z,100999.45
2019-01-25T13:26:13.930Z,101006.08
2019-01-25T13:28:44.138Z,100987.64
2019-01-25T13:31:14.782Z,100986.47
2019-01-25T13:33:45.870Z,100979.39
2019-01-25T13:36:17.937Z,100968.95
2019-01-25T13:38:48.107Z,100970.40
2019-01-25T13:41:18.525Z,100975.31
2019-01-25T13:43:48.858Z,100975.63
2019-01-25T13:46:19.006Z,100969.34
2019-01-25T13:48:50.529Z,100969.20
2019-01-25T13:51:20.833Z,100964.16
2019-01-25T13:53:51.001Z,100957.77
2019-01-25T13:56:21.428Z,100952.67
2019-01-25T13:58:51.392Z,100956.19
2019-01-25T14:01:21.864Z,100954.87
2019-01-25T14:03:53.192Z,100949.36
2019-01-25T14:06:23.994Z,100946.56
2019-01-25T14:08:54.026Z,100945.31
2019-01-25T14:11:24.216Z,100946.93
2019-01-25T14:13:54.406Z,100942.89
2019-01-25T14:16:24.512Z,100940.63
2019-01-25T14:18:54.791Z,100937.75
2019-01-25T14:21:25.040Z,100939.41
2019-01-25T14:23:58.362Z,100945.81
2019-01-25T14:26:28.686Z,100940.00
2019-01-25T14:28:58.832Z,100932.59
2019-01-25T14:31:29.074Z,100924.89
2019-01-25T14:33:59.363Z,100924.28
2019-01-25T14:36:29.390Z,100930.75
2019-01-25T14:38:59.317Z,100930.45
2019-01-25T14:41:32.078Z,100921.97
2019-01-25T14:44:02.197Z,100921.48
2019-01-25T14:46:32.328Z,100914.29
2019-01-25T14:49:02.390Z,100913.05
2019-01-25T14:51:32.524Z,100901.78
2019-01-25T14:54:02.795Z,100905.14
2019-01-25T14:56:33.272Z,100908.30
2019-01-25T14:59:04.204Z,100903.55
2019-01-25T15:01:35.399Z,100912.31
2019-01-25T15:04:08.194Z,100911.19
2019-01-25T15:06:38.609Z,100903.51
2019-01-25T15:09:09.940Z,100904.57
2019-01-25T15:11:40.010Z,100905.27
2019-01-25T15:14:10.325Z,100903.50
2019-01-25T15:16:41.157Z,100902.47
2019-01-25T15:19:12.433Z,100901.48
2019-01-25T15:21:42.680Z,100901.53
2019-01-25T15:24:12.625Z,100906.58
2019-01-25T15:26:42.708Z,100895.02
2019-01-25T15:29:15.960Z,100892.59
2019-01-25T15:31:45.963Z,100899.89
2019-01-25T15:34:16.043Z,100894.25
2019-01-25T15:36:50.256Z,100883.94
2019-01-25T15:39:20.315Z,100889.96
2019-01-25T15:41:50.443Z,100885.80
2019-01-25T15:44:20.975Z,100887.17
2019-01-25T15:46:57.432Z,100877.42
2019-01-25T15:49:29.357Z,100886.77
2019-01-25T15:51:59.388Z,100870.78
2019-01-25T15:54:29.510Z,100866.47
2019-01-25T15:56:59.318Z,100862.34
2019-01-25T15:59:29.564Z,100867.55
2019-01-25T16:02:00.689Z,100858.18
2019-01-25T16:04:35.082Z,100860.50
2019-01-25T16:07:04.205Z,100847.66
2019-01-25T16:09:34.237Z,100842.81
2019-01-25T16:12:09.373Z,100848.78
2019-01-25T16:14:39.429Z,100851.70
2019-01-25T16:17:10.316Z,100853.68
2019-01-25T16:19:42.666Z,100845.67
2019-01-25T16:22:13.379Z,100845.42
2019-01-25T16:24:44.390Z,100844.58
2019-01-25T16:27:14.810Z,100840.36
2019-01-25T16:29:45.669Z,100836.82
2019-01-25T16:32:19.251Z,100834.62
2019-01-25T16:34:49.656Z,100823.95
2019-01-25T16:37:20.064Z,100827.23
2019-01-25T16:39:50.360Z,100822.11
2019-01-25T16:42:20.993Z,100819.81
2019-01-25T16:44:51.643Z,100811.47
2019-01-25T16:47:22.255Z,100817.06
2019-01-25T16:49:55.823Z,100817.91
2019-01-25T16:52:26.247Z,100818.64
2019-01-25T16:55:00.258Z,100818.53
2019-01-25T16:57:30.833Z,100807.81
2019-01-25T17:00:01.515Z,100800.59
2019-01-25T17:02:40.942Z,100810.51
2019-01-25T17:05:11.837Z,100825.92
2019-01-25T17:07:42.615Z,100814.97
2019-01-25T17:10:13.817Z,100798.19
2019-01-25T17:12:47.660Z,100794.11
2019-01-25T17:15:26.686Z,100781.42
2019-01-25T17:17:57.632Z,100786.49
2019-01-25T17:20:31.962Z,100777.09
2019-01-25T17:23:02.001Z,100779.51
2019-01-25T17:25:32.070Z,100780.47
2019-01-25T17:28:03.225Z,100792.17
2019-01-25T17:30:35.199Z,100797.91
2019-01-25T17:33:11.297Z,100790.17
2019-01-25T17:35:51.378Z,100772.30
2019-01-25T17:38:23.374Z,100766.67
2019-01-25T17:40:53.622Z,100759.16
2019-01-25T17:43:24.060Z,100765.00
2019-01-25T17:45:54.467Z,100759.63
2019-01-25T17:48:29.097Z,100752.33
2019-01-25T17:50:59.536Z,100754.88
2019-01-25T17:53:30.012Z,100763.52
2019-01-25T17:56:00.608Z,100755.66
2019-01-25T17:58:31.773Z,100756.40
2019-01-25T18:01:02.128Z,100765.84
2019-01-25T18:03:48.628Z,100758.30
2019-01-25T18:06:25.739Z,100746.84
2019-01-25T18:08:56.298Z,100735.84
2019-01-25T18:11:29.132Z,100734.77
2019-01-25T18:13:59.500Z,100729.64
2019-01-25T18:16:29.664Z,100724.89
2019-01-25T18:19:01.710Z,100722.36
2019-01-25T18:21:34.155Z,100722.38
2019-01-25T18:24:04.674Z,100734.39
2019-01-25T18:26:34.772Z,100730.89
2019-01-25T18:29:32.808Z,100725.08
2019-01-25T18:32:04.666Z,100715.53
2019-01-25T18:34:34.982Z,100714.41
2019-01-25T18:37:05.268Z,100717.04
2019-01-25T18:39:36.704Z,100707.34
2019-01-25T18:42:08.772Z,100696.86
2019-01-25T18:44:39.198Z,100682.34
2019-01-25T18:47:09.695Z,100684.69
2019-01-25T18:49:42.144Z,100677.47
2019-01-25T18:52:14.646Z,100671.84
2019-01-25T18:54:45.110Z,100666.69
2019-01-25T18:57:17.271Z,100657.48
2019-01-25T18:59:47.289Z,100647.94
2019-01-25T19:02:17.391Z,100641.06
2019-01-25T19:04:47.835Z,100635.53
2019-01-25T19:07:18.073Z,100623.80
2019-01-25T19:09:48.434Z,100631.54
2019-01-25T19:12:20.520Z,100614.91
2019-01-25T19:14:52.362Z,100610.00
2019-01-25T19:17:22.672Z,100612.91
2019-01-25T19:19:53.217Z,100602.64
2019-01-25T19:22:28.062Z,100597.13
2019-01-25T19:25:01.446Z,100593.73
2019-01-25T19:27:31.816Z,100589.77
2019-01-25T19:30:02.240Z,100592.97
2019-01-25T19:33:23.940Z,100577.17
2019-01-25T19:35:56.979Z,100568.00
2019-01-25T19:38:27.479Z,100566.37
2019-01-25T19:40:59.826Z,100561.27
2019-01-25T19:43:30.579Z,100554.99
2019-01-25T19:46:00.915Z,100542.98
2019-01-25T19:48:32.719Z,100530.73
2019-01-25T19:51:08.821Z,100527.63
2019-01-25T19:53:39.738Z,100518.69
2019-01-25T19:56:16.153Z,100517.70
2019-01-25T19:58:48.513Z,100505.17
2019-01-25T20:01:20.815Z,100501.04
2019-01-25T20:03:51.230Z,100501.86
2019-01-25T20:06:22.696Z,100485.91
2019-01-25T20:08:57.554Z,100475.70
2019-01-25T20:11:27.589Z,100463.75
2019-01-25T20:14:03.907Z,100455.10
2019-01-25T20:16:42.910Z,100453.47
2019-01-25T20:19:22.406Z,100457.67
2019-01-25T20:22:01.349Z,100452.36
2019-01-25T20:24:49.690Z,100450.69
2019-01-25T20:27:20.007Z,100446.28
2019-01-25T20:30:01.463Z,100446.78
2019-01-25T20:32:30.653Z,100447.20
2019-01-25T20:35:02.639Z,100441.22
2019-01-25T20:37:33.792Z,100438.70
2019-01-25T20:40:31.781Z,100444.37
2019-01-25T20:43:09.870Z,100440.98
2019-01-25T20:45:40.470Z,100438.20
2019-01-25T20:48:10.871Z,100421.44
2019-01-25T20:50:43.487Z,100417.97
2019-01-25T20:53:14.918Z,100405.61
2019-01-25T20:56:04.507Z,100405.02
2019-01-25T20:58:36.899Z,100400.98
2019-01-25T21:01:07.068Z,100397.94
2019-01-25T21:03:37.207Z,100394.23
2019-01-25T21:06:08.027Z,100406.57
2019-01-25T21:08:59.161Z,100396.10
2019-01-25T21:11:34.043Z,100396.31
2019-01-25T21:14:03.928Z,100395.20
2019-01-25T21:16:41.074Z,100394.73
2019-01-25T21:19:11.753Z,100385.78
2019-01-25T21:21:48.325Z,100387.31
2019-01-25T21:24:24.171Z,100380.03
2019-01-25T21:27:03.967Z,100374.12
2019-01-25T21:29:36.665Z,100361.89
2019-01-25T21:32:10.955Z,100358.84
2019-01-25T21:34:45.886Z,100359.88
2019-01-25T21:37:18.519Z,100342.01
2019-01-25T21:40:08.455Z,100343.72
2019-01-25T21:42:34.987Z,100338.59
2019-01-25T21:45:06.010Z,100325.95
2019-01-25T21:47:36.790Z,100326.75
2019-01-25T21:50:08.674Z,100320.36
2019-01-25T21:52:43.733Z,100315.14
2019-01-25T21:55:16.106Z,100304.80
2019-01-25T21:57:52.120Z,100298.80
2019-01-25T22:00:26.148Z,100290.93
2019-01-25T22:02:56.559Z,100288.90
2019-01-25T22:05:36.281Z,100275.80
2019-01-25T22:08:07.932Z,100260.19
2019-01-25T22:10:44.104Z,100257.93
2019-01-25T22:13:17.016Z,100246.30
2019-01-25T22:15:50.989Z,100246.34
2019-01-25T22:18:24.747Z,100244.21
2019-01-25T22:20:54.875Z,100256.43
2019-01-25T22:23:24.947Z,100242.59
2019-01-25T22:25:56.637Z,100243.89
2019-01-25T22:28:26.674Z,100237.76
2019-01-25T22:30:58.866Z,100242.61
2019-01-25T22:33:29.119Z,100237.02
2019-01-25T22:36:03.101Z,100234.02
2019-01-25T22:38:33.350Z,100232.70
2019-01-25T22:41:06.643Z,100232.27
2019-01-25T22:43:36.681Z,100223.18
2019-01-25T22:46:06.703Z,100218.42
2019-01-25T22:48:36.986Z,100207.12
2019-01-25T22:51:07.269Z,100206.27
2019-01-25T22:53:37.396Z,100211.43
2019-01-25T22:56:07.510Z,100202.75
2019-01-25T22:58:37.594Z,100207.89
2019-01-25T23:01:21.103Z,100204.51
2019-01-25T23:04:16.747Z,100201.05
2019-01-25T23:06:53.728Z,100196.66
2019-01-25T23:09:50.267Z,100190.55
2019-01-25T23:12:25.537Z,100199.20
2019-01-25T23:14:55.566Z,100176.55
2019-01-25T23:17:25.798Z,100175.78
2019-01-25T23:19:55.945Z,100180.14
2019-01-25T23:22:26.440Z,100178.39
2019-01-25T23:24:56.817Z,100174.02
2019-01-25T23:27:27.132Z,100160.09
2019-01-25T23:29:57.277Z,100163.49
2019-01-25T23:32:29.357Z,100160.55
2019-01-25T23:34:59.453Z,100152.76
2019-01-25T23:37:29.753Z,100149.19
2019-01-25T23:39:59.947Z,100142.30
2019-01-25T23:45:59.366Z,100130.13
2019-01-25T23:48:50.943Z,100132.34
2019-01-25T23:51:23.043Z,100136.67
2019-01-25T23:53:52.759Z,100133.23
2019-01-25T23:56:22.690Z,100132.37
2019-01-25T23:58:52.628Z,100122.77
